Time;durP1;ratioP1;P1;durP2;ratioP2;P2;SDS_P1;SDS_P2;PMS_P1;PMS_P2;Temp;Humidity;BMP_temperature;BMP_pressure;BME280_temperature;BME280_humidity;BME280_pressure;Samples;Min_cycle;Max_cycle;Signal;HPM_P1;HPM_P2
2021/10/13 00:02:15;;;;;;;9.13;4.57;;;7.80;99.90;;;;;;5027333;28;20186;-38
2021/10/13 00:04:41;;;;;;;5.97;3.57;;;7.80;99.90;;;;;;5026788;28;20281;-38
2021/10/13 00:07:06;;;;;;;5.87;4.70;;;7.90;99.90;;;;;;5019853;28;20753;-37
2021/10/13 00:09:32;;;;;;;5.13;3.87;;;8.00;99.90;;;;;;5026280;28;21532;-37
2021/10/13 00:11:58;;;;;;;6.63;4.03;;;7.90;99.90;;;;;;5025962;28;20190;-37
2021/10/13 00:14:24;;;;;;;8.90;4.77;;;8.00;99.90;;;;;;5026835;28;20323;-37
2021/10/13 00:16:55;;;;;;;5.80;3.97;;;8.00;99.90;;;;;;5027201;28;20201;-37
2021/10/13 00:19:22;;;;;;;6.50;3.77;;;8.20;99.90;;;;;;5027186;28;20967;-37
2021/10/13 00:21:48;;;;;;;5.83;4.07;;;7.90;99.90;;;;;;5037574;28;20563;-38
2021/10/13 00:24:14;;;;;;;4.67;3.50;;;7.90;99.90;;;;;;5022646;28;20425;-38
2021/10/13 00:26:39;;;;;;;8.00;3.60;;;7.90;99.90;;;;;;5031209;28;20513;-38
2021/10/13 00:29:05;;;;;;;7.10;4.00;;;7.90;99.90;;;;;;5029834;28;20190;-38
2021/10/13 00:31:31;;;;;;;8.17;3.97;;;7.90;99.90;;;;;;5030881;28;20695;-38
2021/10/13 00:33:57;;;;;;;5.20;3.93;;;7.90;99.90;;;;;;5030402;28;20206;-37
2021/10/13 00:36:22;;;;;;;7.30;4.00;;;8.10;99.90;;;;;;5030087;28;20542;-38
2021/10/13 00:38:48;;;;;;;5.73;3.80;;;7.90;99.90;;;;;;5022600;28;20179;-37
2021/10/13 00:41:15;;;;;;;5.30;3.93;;;8.10;99.90;;;;;;5031006;28;20277;-38
2021/10/13 00:43:42;;;;;;;4.83;4.20;;;7.90;99.90;;;;;;5030482;28;20181;-38
2021/10/13 00:46:08;;;;;;;6.67;3.97;;;7.90;99.90;;;;;;5030753;28;20425;-38
2021/10/13 00:48:34;;;;;;;3.87;3.40;;;8.10;99.90;;;;;;5029950;28;20456;-37
2021/10/13 00:51:00;;;;;;;4.80;3.80;;;8.00;99.90;;;;;;5030519;28;20420;-37
2021/10/13 00:53:26;;;;;;;7.07;4.70;;;8.00;99.90;;;;;;5017755;28;20341;-37
2021/10/13 00:55:56;;;;;;;20.33;4.80;;;8.00;99.90;;;;;;5029631;28;20203;-38
2021/10/13 00:58:23;;;;;;;7.67;3.77;;;8.10;99.90;;;;;;5030899;28;20428;-38
2021/10/13 01:00:57;;;;;;;8.77;4.40;;;8.00;99.90;;;;;;5030358;28;20874;-37
2021/10/13 01:03:31;;;;;;;5.37;4.10;;;8.20;99.90;;;;;;5029912;28;20507;-38
2021/10/13 01:06:16;;;;;;;6.10;4.03;;;8.10;99.90;;;;;;5030667;28;20424;-37
2021/10/13 01:09:14;;;;;;;4.70;4.00;;;7.90;99.90;;;;;;5020550;28;20471;-38
2021/10/13 01:12:04;;;;;;;5.60;3.90;;;7.90;99.90;;;;;;5022955;28;20421;-40
2021/10/13 01:14:41;;;;;;;5.77;3.43;;;7.90;99.90;;;;;;5028209;28;20437;-37
2021/10/13 01:17:22;;;;;;;5.00;4.40;;;8.00;99.90;;;;;;5028655;28;20733;-37
2021/10/13 01:19:57;;;;;;;6.07;4.30;;;7.70;99.90;;;;;;5029661;28;20459;-37
2021/10/13 01:22:46;;;;;;;6.73;4.50;;;7.70;99.90;;;;;;5036995;28;21050;-37
2021/10/13 01:25:33;;;;;;;6.40;4.13;;;7.80;99.90;;;;;;5027323;28;20417;-37
2021/10/13 01:28:20;;;;;;;6.77;4.23;;;7.60;99.90;;;;;;5024934;28;21014;-37
2021/10/13 01:30:57;;;;;;;4.80;4.03;;;7.60;99.90;;;;;;5028097;28;21016;-37
2021/10/13 01:33:36;;;;;;;6.20;4.60;;;7.50;99.90;;;;;;5027053;28;21065;-38
2021/10/13 01:36:06;;;;;;;6.53;4.57;;;7.50;99.90;;;;;;5028422;28;20425;-38
2021/10/13 01:38:39;;;;;;;9.57;4.70;;;7.50;99.90;;;;;;5018012;28;20437;-38
2021/10/13 01:41:08;;;;;;;5.83;4.80;;;7.60;99.90;;;;;;5028215;28;21489;-38
2021/10/13 01:43:38;;;;;;;6.70;4.90;;;7.50;99.90;;;;;;5027236;28;20421;-38
2021/10/13 01:46:05;;;;;;;7.23;5.27;;;7.40;99.90;;;;;;5028014;28;20421;-37
2021/10/13 01:48:33;;;;;;;9.63;5.77;;;7.50;99.90;;;;;;5026466;28;20464;-37
2021/10/13 01:51:00;;;;;;;6.50;5.90;;;7.70;99.90;;;;;;5028044;28;20452;-38
2021/10/13 01:53:27;;;;;;;10.03;6.93;;;7.60;99.90;;;;;;5017037;28;20862;-37
2021/10/13 01:55:55;;;;;;;9.40;5.70;;;7.70;99.90;;;;;;5027771;28;20779;-38
2021/10/13 01:58:21;;;;;;;8.23;6.00;;;7.80;99.90;;;;;;5027889;28;20455;-38
2021/10/13 02:00:50;;;;;;;11.03;6.70;;;7.80;99.90;;;;;;5027555;28;20414;-37
2021/10/13 02:03:20;;;;;;;8.70;6.80;;;7.80;99.90;;;;;;5026911;28;20421;-38
2021/10/13 02:05:48;;;;;;;10.27;6.63;;;8.00;99.90;;;;;;5027778;28;20861;-37
2021/10/13 02:08:16;;;;;;;9.47;6.30;;;8.00;99.90;;;;;;5018210;28;20498;-37
2021/10/13 02:10:44;;;;;;;13.27;7.43;;;7.90;99.90;;;;;;5020932;28;20446;-37
2021/10/13 02:13:11;;;;;;;14.87;7.80;;;7.90;99.90;;;;;;5027186;28;20429;-37
2021/10/13 02:15:39;;;;;;;10.30;6.40;;;8.30;99.90;;;;;;5027263;28;20420;-37
2021/10/13 02:18:07;;;;;;;11.17;6.40;;;8.10;99.90;;;;;;5027289;28;20468;-38
2021/10/13 02:20:34;;;;;;;8.90;6.13;;;8.10;99.90;;;;;;5034140;28;20779;-38
2021/10/13 02:23:03;;;;;;;12.83;7.67;;;8.00;99.90;;;;;;5031453;28;20512;-37
2021/10/13 02:25:34;;;;;;;8.30;5.97;;;8.10;99.90;;;;;;5025972;28;20491;-38
2021/10/13 02:28:04;;;;;;;10.00;6.00;;;8.30;99.90;;;;;;5027083;28;20457;-37
2021/10/13 02:30:32;;;;;;;8.17;5.67;;;8.20;99.90;;;;;;5027075;28;20710;-37
2021/10/13 02:32:58;;;;;;;11.23;5.90;;;8.20;99.90;;;;;;5026308;28;20444;-38
2021/10/13 02:35:24;;;;;;;6.50;5.90;;;8.30;99.90;;;;;;5027073;28;20421;-37
2021/10/13 02:37:50;;;;;;;11.83;6.43;;;8.40;99.90;;;;;;5022071;28;20448;-38
2021/10/13 02:40:16;;;;;;;9.80;6.20;;;8.40;99.90;;;;;;5024040;28;20186;-37
2021/10/13 02:42:41;;;;;;;9.13;6.17;;;8.30;99.90;;;;;;5026190;28;20782;-38
2021/10/13 02:45:08;;;;;;;8.07;5.83;;;8.40;99.90;;;;;;5025522;28;20283;-38
2021/10/13 02:47:39;;;;;;;9.30;6.67;;;8.50;99.90;;;;;;5025422;28;20580;-37
2021/10/13 02:50:41;;;;;;;9.47;5.87;;;8.40;99.90;;;;;;5026844;28;20425;-37
2021/10/13 02:53:20;;;;;;;8.17;5.90;;;8.50;99.90;;;;;;5017424;28;20478;-38
2021/10/13 02:55:59;;;;;;;9.43;5.97;;;8.30;99.90;;;;;;5022949;28;20413;-38
2021/10/13 02:58:34;;;;;;;8.87;5.53;;;8.50;99.90;;;;;;5026553;28;20552;-38
2021/10/13 03:01:01;;;;;;;10.70;5.83;;;8.40;99.90;;;;;;5026315;28;20421;-38
2021/10/13 03:03:40;;;;;;;7.30;5.20;;;8.60;99.90;;;;;;5025988;28;20449;-37
2021/10/13 03:06:08;;;;;;;14.13;6.93;;;8.60;99.90;;;;;;5026301;28;20412;-37
2021/10/13 03:08:37;;;;;;;13.60;6.83;;;8.40;99.90;;;;;;5017230;28;20704;-37
2021/10/13 03:11:05;;;;;;;8.80;6.27;;;8.30;99.90;;;;;;5021496;28;20682;-38
2021/10/13 03:13:33;;;;;;;7.93;6.63;;;8.40;99.90;;;;;;5025412;28;20417;-37
2021/10/13 03:16:01;;;;;;;11.47;8.03;;;8.40;99.90;;;;;;5026031;28;20410;-38
2021/10/13 03:18:28;;;;;;;8.30;6.80;;;8.20;99.90;;;;;;5026261;28;20623;-38
2021/10/13 03:20:54;;;;;;;10.07;7.00;;;8.10;99.90;;;;;;5025893;28;20432;-38
2021/10/13 03:23:21;;;;;;;11.13;6.93;;;8.30;99.90;;;;;;5031634;28;20560;-39
2021/10/13 03:25:51;;;;;;;10.20;6.80;;;8.20;99.90;;;;;;5020004;28;20432;-37
2021/10/13 03:28:17;;;;;;;11.73;6.63;;;8.40;99.90;;;;;;5025924;28;20457;-37
2021/10/13 03:30:44;;;;;;;10.97;7.03;;;8.40;99.90;;;;;;5025868;28;20816;-37
2021/10/13 03:33:10;;;;;;;9.90;7.20;;;8.50;99.90;;;;;;5025070;28;20429;-37
2021/10/13 03:35:36;;;;;;;8.03;6.30;;;8.20;99.90;;;;;;5025647;28;20421;-37
2021/10/13 03:38:04;;;;;;;9.83;7.60;;;8.20;99.90;;;;;;5021024;28;20491;-38
2021/10/13 03:40:32;;;;;;;10.67;7.00;;;8.20;99.90;;;;;;5021625;28;20429;-37
2021/10/13 03:42:58;;;;;;;13.77;6.87;;;8.30;99.90;;;;;;5025215;28;20432;-38
2021/10/13 03:45:24;;;;;;;10.67;7.10;;;8.40;99.90;;;;;;5026043;28;20795;-38
2021/10/13 03:47:50;;;;;;;9.80;7.10;;;8.00;99.90;;;;;;5024353;28;20491;-37
2021/10/13 03:50:18;;;;;;;8.60;7.30;;;8.40;99.90;;;;;;5025864;28;20388;-37
2021/10/13 03:52:44;;;;;;;17.57;7.60;;;8.40;99.90;;;;;;5024484;28;20524;-38
2021/10/13 03:55:13;;;;;;;13.23;7.20;;;8.30;99.90;;;;;;5020861;28;20413;-37
2021/10/13 03:57:39;;;;;;;8.63;5.83;;;8.20;99.90;;;;;;5025611;28;20567;-38
2021/10/13 04:00:07;;;;;;;11.87;7.77;;;8.40;99.90;;;;;;5025666;28;20433;-38
2021/10/13 04:02:33;;;;;;;11.07;7.60;;;8.30;99.90;;;;;;5025183;28;20455;-38
2021/10/13 04:04:59;;;;;;;10.73;6.63;;;8.40;99.90;;;;;;5025096;28;20927;-37
2021/10/13 04:07:25;;;;;;;8.80;7.60;;;8.20;99.90;;;;;;5025581;28;20289;-37
2021/10/13 04:09:51;;;;;;;9.30;6.57;;;8.20;99.90;;;;;;5013930;28;20190;-37
2021/10/13 04:12:16;;;;;;;9.00;6.87;;;8.10;99.90;;;;;;5025456;28;20773;-37
2021/10/13 04:14:42;;;;;;;13.00;7.83;;;8.00;99.90;;;;;;5024793;28;20368;-37
2021/10/13 04:17:08;;;;;;;10.20;7.60;;;8.00;99.90;;;;;;5025583;28;20198;-38
2021/10/13 04:19:34;;;;;;;11.33;8.40;;;8.00;99.90;;;;;;5025803;28;20491;-37
2021/10/13 04:21:59;;;;;;;11.10;7.40;;;8.30;99.90;;;;;;5032254;28;20185;-38
2021/10/13 04:24:25;;;;;;;7.70;6.90;;;8.40;99.90;;;;;;5021984;28;20187;-37
2021/10/13 04:26:51;;;;;;;13.30;8.87;;;8.30;99.90;;;;;;5020389;28;20198;-38
2021/10/13 04:29:17;;;;;;;13.20;8.40;;;8.30;99.90;;;;;;5025321;28;20441;-38
2021/10/13 04:31:42;;;;;;;12.90;8.30;;;8.20;99.90;;;;;;5025003;28;20187;-38
2021/10/13 04:34:08;;;;;;;11.93;8.23;;;8.30;99.90;;;;;;5023674;28;20425;-37
2021/10/13 04:36:34;;;;;;;8.60;7.70;;;8.30;99.90;;;;;;5025290;28;20217;-38
2021/10/13 04:38:59;;;;;;;12.63;7.07;;;8.50;99.90;;;;;;5006724;28;20201;-38
2021/10/13 04:41:25;;;;;;;10.77;8.03;;;8.20;99.90;;;;;;5024814;28;20189;-37
2021/10/13 04:43:51;;;;;;;10.53;8.10;;;8.40;99.90;;;;;;5016973;28;20592;-38
2021/10/13 04:46:16;;;;;;;12.97;8.00;;;8.40;99.90;;;;;;5022098;28;20198;-38
2021/10/13 04:48:42;;;;;;;10.80;7.50;;;8.30;99.90;;;;;;5020998;28;20218;-38
2021/10/13 04:51:07;;;;;;;11.43;7.63;;;8.30;99.90;;;;;;5010747;28;20274;-38
2021/10/13 04:53:33;;;;;;;12.73;7.43;;;8.50;99.90;;;;;;5019649;28;20218;-38
2021/10/13 04:55:59;;;;;;;11.63;7.53;;;8.30;99.90;;;;;;5022823;28;20222;-38
2021/10/13 04:58:28;;;;;;;11.40;8.37;;;8.30;99.90;;;;;;5024892;28;20287;-38
2021/10/13 05:00:54;;;;;;;11.83;8.13;;;8.60;99.90;;;;;;5011813;28;20983;-38
2021/10/13 05:03:20;;;;;;;9.23;7.63;;;8.40;99.90;;;;;;5024542;28;20426;-38
2021/10/13 05:05:45;;;;;;;11.80;7.43;;;8.40;99.90;;;;;;5025086;28;20435;-37
2021/10/13 05:08:11;;;;;;;9.97;7.60;;;8.40;99.90;;;;;;5027225;28;20222;-38
2021/10/13 05:10:38;;;;;;;9.90;7.60;;;8.50;99.90;;;;;;5020410;28;20178;-37
2021/10/13 05:13:07;;;;;;;13.00;7.93;;;8.50;99.90;;;;;;5027631;28;20187;-37
2021/10/13 05:15:33;;;;;;;9.57;7.00;;;8.50;99.90;;;;;;5015203;28;20429;-38
2021/10/13 05:17:58;;;;;;;9.63;7.67;;;8.40;99.90;;;;;;5028032;28;20903;-38
2021/10/13 05:20:24;;;;;;;12.83;8.90;;;8.70;99.90;;;;;;5041456;28;20896;-38
2021/10/13 05:22:50;;;;;;;13.20;8.30;;;8.50;99.90;;;;;;5027632;28;20205;-38
2021/10/13 05:25:16;;;;;;;13.37;9.43;;;8.40;99.90;;;;;;5020474;28;20475;-37
2021/10/13 05:27:42;;;;;;;14.87;8.80;;;8.40;99.90;;;;;;5025795;28;20740;-38
2021/10/13 05:30:08;;;;;;;9.20;7.70;;;8.40;99.90;;;;;;5008323;28;20421;-38
2021/10/13 05:32:33;;;;;;;12.40;9.03;;;8.50;99.90;;;;;;5021749;28;20191;-38
2021/10/13 05:34:59;;;;;;;14.53;9.10;;;8.20;99.90;;;;;;5027512;28;20421;-38
2021/10/13 05:37:25;;;;;;;15.63;8.50;;;8.30;99.90;;;;;;5028088;28;20194;-38
2021/10/13 05:39:51;;;;;;;12.47;8.57;;;8.50;99.90;;;;;;5018714;28;20199;-38
2021/10/13 05:42:16;;;;;;;15.63;9.30;;;8.20;99.90;;;;;;5025240;28;20217;-38
2021/10/13 05:44:42;;;;;;;10.73;8.93;;;8.40;99.90;;;;;;5026864;28;20280;-38
2021/10/13 05:47:08;;;;;;;11.10;9.03;;;8.20;99.90;;;;;;5025511;28;20271;-38
2021/10/13 05:49:33;;;;;;;13.63;8.97;;;8.20;99.90;;;;;;5028223;28;20449;-38
2021/10/13 05:51:59;;;;;;;13.97;8.90;;;8.10;99.90;;;;;;5027993;28;20186;-38
2021/10/13 05:54:25;;;;;;;13.70;9.40;;;8.10;99.90;;;;;;5022061;28;20191;-37
2021/10/13 05:56:51;;;;;;;11.73;8.47;;;8.20;99.90;;;;;;5027541;28;20320;-37
2021/10/13 05:59:18;;;;;;;11.87;8.97;;;8.30;99.90;;;;;;5019318;28;20660;-37
2021/10/13 06:01:45;;;;;;;11.20;8.40;;;8.30;99.90;;;;;;5027492;28;20751;-38
2021/10/13 06:04:10;;;;;;;10.33;8.17;;;8.20;99.90;;;;;;5024031;28;20475;-38
2021/10/13 06:06:36;;;;;;;11.53;8.33;;;8.20;99.90;;;;;;5027294;28;20455;-38
2021/10/13 06:09:02;;;;;;;12.20;8.33;;;8.20;99.90;;;;;;5023741;28;20222;-38
2021/10/13 06:11:28;;;;;;;11.33;8.03;;;8.20;99.90;;;;;;5023556;28;20381;-37
2021/10/13 06:13:53;;;;;;;11.33;8.47;;;8.40;99.90;;;;;;5013016;28;21023;-38
2021/10/13 06:16:20;;;;;;;11.97;8.77;;;8.30;99.90;;;;;;5022261;28;20273;-38
2021/10/13 06:18:48;;;;;;;12.10;8.90;;;8.40;99.90;;;;;;5017519;28;20204;-37
2021/10/13 06:21:14;;;;;;;11.57;8.70;;;8.30;99.90;;;;;;5026749;28;20468;-37
2021/10/13 06:23:39;;;;;;;13.63;9.07;;;8.50;99.90;;;;;;5026259;28;20456;-37
2021/10/13 06:26:06;;;;;;;13.83;9.10;;;8.40;99.90;;;;;;5022786;28;20222;-37
2021/10/13 06:28:32;;;;;;;13.07;8.47;;;8.30;99.90;;;;;;5026584;28;20221;-38
2021/10/13 06:30:58;;;;;;;19.77;9.77;;;8.30;99.90;;;;;;5019653;28;20427;-37
2021/10/13 06:33:23;;;;;;;15.10;9.83;;;8.40;99.90;;;;;;5026205;28;20225;-37
2021/10/13 06:35:49;;;;;;;12.97;7.80;;;8.40;99.90;;;;;;5027044;28;20221;-37
2021/10/13 06:38:15;;;;;;;13.00;9.20;;;8.50;99.90;;;;;;5018175;28;20195;-38
2021/10/13 06:40:41;;;;;;;11.90;8.20;;;8.50;99.90;;;;;;5019066;28;20198;-37
2021/10/13 06:43:07;;;;;;;14.87;8.97;;;8.60;99.90;;;;;;5025650;28;20935;-37
2021/10/13 06:45:36;;;;;;;10.93;9.40;;;8.50;99.90;;;;;;5025206;28;20236;-37
2021/10/13 06:48:06;;;;;;;13.40;9.40;;;8.50;99.90;;;;;;5024389;28;20567;-37
2021/10/13 06:50:32;;;;;;;14.67;8.73;;;8.60;99.90;;;;;;5026324;28;20732;-37
2021/10/13 06:52:58;;;;;;;12.23;9.60;;;8.60;99.90;;;;;;5023094;28;20430;-38
2021/10/13 06:55:24;;;;;;;15.67;9.57;;;8.70;99.90;;;;;;5017638;28;20430;-37
2021/10/13 06:57:50;;;;;;;10.90;8.53;;;8.70;99.90;;;;;;5025414;28;20966;-37
2021/10/13 07:00:16;;;;;;;13.57;9.57;;;8.60;99.90;;;;;;5027708;28;20203;-38
2021/10/13 07:02:41;;;;;;;15.07;8.90;;;8.70;99.90;;;;;;5023228;28;20224;-37
2021/10/13 07:05:07;;;;;;;15.43;9.90;;;8.60;99.90;;;;;;5027720;28;20425;-38
2021/10/13 07:07:40;;;;;;;13.83;9.60;;;8.90;99.90;;;;;;5046666;28;20213;-38
2021/10/13 07:10:06;;;;;;;17.87;9.57;;;8.70;99.90;;;;;;5033563;28;20234;-37
2021/10/13 07:12:32;;;;;;;14.70;10.33;;;8.90;99.90;;;;;;5018721;28;20425;-38
2021/10/13 07:14:58;;;;;;;15.23;9.50;;;8.70;99.90;;;;;;5025798;28;20437;-38
2021/10/13 07:17:24;;;;;;;12.60;9.20;;;8.70;99.90;;;;;;5026530;28;20436;-37
2021/10/13 07:19:49;;;;;;;14.43;9.93;;;8.60;99.90;;;;;;5026280;28;20205;-37
2021/10/13 07:22:15;;;;;;;13.13;10.73;;;8.70;99.90;;;;;;5035490;28;20244;-38
2021/10/13 07:24:41;;;;;;;13.73;11.13;;;8.80;99.90;;;;;;5039103;28;20650;-38
2021/10/13 07:27:07;;;;;;;14.27;10.20;;;9.00;99.90;;;;;;5016112;28;20945;-38
2021/10/13 07:29:40;;;;;;;11.37;9.00;;;8.90;99.90;;;;;;5025490;28;20556;-38
2021/10/13 07:32:06;;;;;;;12.10;10.30;;;9.30;99.90;;;;;;5025817;28;20653;-38
2021/10/13 07:34:32;;;;;;;14.63;9.57;;;9.20;99.90;;;;;;5025843;28;20436;-37
2021/10/13 07:36:57;;;;;;;12.33;9.40;;;9.00;99.90;;;;;;5027912;28;20186;-37
2021/10/13 07:39:23;;;;;;;15.33;9.80;;;9.10;99.90;;;;;;5024944;28;20285;-37
2021/10/13 07:41:49;;;;;;;16.20;9.63;;;9.00;99.90;;;;;;5020918;28;20197;-37
2021/10/13 07:44:14;;;;;;;14.07;9.80;;;9.00;99.90;;;;;;5019929;28;20248;-37
2021/10/13 07:46:40;;;;;;;15.80;10.97;;;9.20;99.90;;;;;;5019284;28;20190;-38
2021/10/13 07:49:06;;;;;;;14.27;10.50;;;9.30;99.90;;;;;;5027556;28;20691;-38
2021/10/13 07:51:31;;;;;;;14.80;10.30;;;9.30;99.90;;;;;;5026637;28;20191;-38
2021/10/13 07:53:57;;;;;;;15.53;10.80;;;9.30;99.90;;;;;;5041098;28;20306;-38
2021/10/13 07:56:23;;;;;;;18.50;11.60;;;9.30;99.90;;;;;;5017900;28;20670;-37
2021/10/13 07:58:49;;;;;;;15.50;10.47;;;9.50;99.90;;;;;;5025623;28;20194;-37
2021/10/13 08:01:15;;;;;;;17.73;10.90;;;9.60;99.90;;;;;;5025498;28;20217;-37
2021/10/13 08:03:40;;;;;;;14.13;10.47;;;9.70;99.90;;;;;;5025175;28;20510;-38
2021/10/13 08:06:07;;;;;;;16.10;9.77;;;9.60;99.90;;;;;;5025866;28;20223;-38
2021/10/13 08:08:33;;;;;;;16.30;10.60;;;9.60;99.90;;;;;;5025600;28;20210;-38
2021/10/13 08:10:58;;;;;;;15.47;9.87;;;9.60;99.90;;;;;;5021619;28;20568;-38
2021/10/13 08:13:24;;;;;;;14.33;9.97;;;9.70;99.90;;;;;;5022654;28;20950;-38
2021/10/13 08:15:50;;;;;;;14.90;9.20;;;9.70;99.90;;;;;;5023934;28;20269;-37
2021/10/13 08:18:15;;;;;;;10.87;9.20;;;9.70;99.90;;;;;;5025587;28;20692;-38
2021/10/13 08:20:42;;;;;;;12.33;9.97;;;9.70;99.90;;;;;;5032532;28;20660;-37
2021/10/13 08:23:07;;;;;;;15.73;10.37;;;10.00;99.90;;;;;;5044346;28;20247;-38
2021/10/13 08:25:33;;;;;;;13.87;9.10;;;9.80;99.90;;;;;;5029945;28;20537;-37
2021/10/13 08:27:59;;;;;;;17.27;9.17;;;9.90;99.90;;;;;;5019583;28;20225;-37
2021/10/13 08:30:24;;;;;;;12.13;9.00;;;10.00;99.90;;;;;;5024993;28;20190;-37
2021/10/13 08:32:50;;;;;;;11.73;9.03;;;10.00;99.90;;;;;;5024645;28;20859;-38
2021/10/13 08:35:16;;;;;;;15.27;9.93;;;10.20;99.90;;;;;;5025253;28;20191;-37
2021/10/13 08:37:42;;;;;;;15.90;9.60;;;10.00;99.90;;;;;;5024981;28;20438;-38
2021/10/13 08:40:11;;;;;;;17.93;10.07;;;10.10;99.90;;;;;;5021860;28;20191;-38
2021/10/13 08:42:50;;;;;;;19.03;10.97;;;10.10;99.90;;;;;;5019657;28;20712;-37
2021/10/13 08:45:16;;;;;;;14.60;10.50;;;10.10;99.90;;;;;;5029065;28;20448;-38
2021/10/13 08:47:41;;;;;;;13.50;11.70;;;10.00;99.90;;;;;;5027356;28;20845;-38
2021/10/13 08:50:07;;;;;;;17.73;11.47;;;10.20;99.90;;;;;;5028846;28;20518;-38
2021/10/13 08:52:33;;;;;;;13.30;11.50;;;10.20;99.90;;;;;;5029065;28;20269;-38
2021/10/13 08:54:58;;;;;;;16.57;12.30;;;10.30;99.90;;;;;;5026544;28;20190;-38
2021/10/13 08:57:26;;;;;;;20.87;12.13;;;10.20;99.90;;;;;;5020327;28;20832;-37
2021/10/13 08:59:52;;;;;;;13.30;11.83;;;10.30;99.90;;;;;;5028571;28;20197;-37
2021/10/13 09:02:35;;;;;;;15.70;11.40;;;10.30;99.90;;;;;;5028905;28;20487;-38
2021/10/13 09:05:22;;;;;;;21.00;12.33;;;10.80;99.90;;;;;;5028141;28;20435;-38
2021/10/13 09:07:53;;;;;;;17.90;12.70;;;10.80;99.90;;;;;;5029092;28;20457;-37
2021/10/13 09:10:34;;;;;;;15.30;12.23;;;10.90;99.90;;;;;;5026107;28;20703;-38
2021/10/13 09:13:02;;;;;;;14.13;11.63;;;11.00;99.90;;;;;;5023570;28;20413;-38
2021/10/13 09:15:29;;;;;;;16.40;12.30;;;11.00;99.90;;;;;;5028568;28;20433;-38
2021/10/13 09:18:03;;;;;;;16.90;12.00;;;10.90;99.90;;;;;;5028513;28;20417;-37
2021/10/13 09:20:32;;;;;;;16.33;12.10;;;11.00;99.90;;;;;;5027030;28;20425;-37
2021/10/13 09:23:08;;;;;;;14.60;11.80;;;11.10;99.90;;;;;;5041093;28;20718;-38
2021/10/13 09:25:36;;;;;;;11.90;10.70;;;11.10;99.90;;;;;;5039437;28;20441;-37
2021/10/13 09:28:04;;;;;;;16.87;12.00;;;11.20;99.90;;;;;;5023661;28;20477;-38
2021/10/13 09:30:32;;;;;;;14.17;10.90;;;11.20;99.90;;;;;;5027934;28;20425;-38
2021/10/13 09:33:09;;;;;;;13.37;10.90;;;11.20;99.90;;;;;;5027282;28;20436;-38
2021/10/13 09:35:41;;;;;;;16.03;11.10;;;11.50;99.90;;;;;;5028231;28;20420;-38
2021/10/13 09:38:06;;;;;;;15.40;10.97;;;11.30;99.90;;;;;;5027782;28;20431;-38
2021/10/13 09:40:34;;;;;;;17.10;11.80;;;11.30;99.90;;;;;;5025114;28;20425;-38
2021/10/13 09:43:00;;;;;;;15.63;11.40;;;11.40;99.90;;;;;;5019634;28;20194;-38
2021/10/13 09:45:32;;;;;;;14.47;11.73;;;11.50;99.90;;;;;;5027807;28;20782;-38
2021/10/13 09:47:58;;;;;;;18.73;10.37;;;11.60;99.90;;;;;;5025420;28;20464;-38
2021/10/13 09:50:40;;;;;;;15.03;10.10;;;11.70;99.90;;;;;;5027932;28;20421;-38
2021/10/13 09:53:21;;;;;;;15.33;10.93;;;11.70;99.90;;;;;;5015746;28;20535;-38
2021/10/13 09:55:47;;;;;;;15.37;9.90;;;11.80;99.90;;;;;;5024512;28;20966;-38
2021/10/13 09:58:31;;;;;;;13.00;10.10;;;11.80;99.90;;;;;;5020858;28;20421;-38
2021/10/13 10:01:18;;;;;;;17.03;10.83;;;12.00;99.90;;;;;;5022012;28;20424;-38
2021/10/13 10:03:46;;;;;;;15.03;10.77;;;11.90;99.90;;;;;;5026930;28;20536;-38
2021/10/13 10:06:14;;;;;;;13.77;10.40;;;11.90;99.90;;;;;;5027694;28;20486;-38
2021/10/13 10:08:56;;;;;;;13.43;10.53;;;11.80;99.90;;;;;;5027706;28;20495;-38
2021/10/13 10:11:32;;;;;;;12.93;10.20;;;11.90;99.90;;;;;;5020955;28;20430;-38
2021/10/13 10:13:59;;;;;;;14.10;10.03;;;11.90;99.90;;;;;;5021361;28;20456;-38
2021/10/13 10:16:38;;;;;;;15.00;11.20;;;12.00;99.90;;;;;;5027344;28;20819;-38
2021/10/13 10:19:22;;;;;;;16.23;10.47;;;12.10;99.90;;;;;;5025986;28;20425;-38
2021/10/13 10:21:52;;;;;;;15.00;10.73;;;12.30;99.90;;;;;;5044494;28;20462;-38
2021/10/13 10:24:32;;;;;;;12.47;9.47;;;12.50;99.90;;;;;;5045542;28;20534;-38
2021/10/13 10:27:28;;;;;;;15.20;8.97;;;12.80;99.90;;;;;;5028732;28;20436;-37
2021/10/13 10:30:09;;;;;;;10.90;8.87;;;13.10;99.90;;;;;;5022720;28;20434;-38
2021/10/13 10:32:37;;;;;;;15.97;9.30;;;13.20;99.90;;;;;;5026980;28;20518;-38
2021/10/13 10:35:06;;;;;;;12.63;8.33;;;13.30;99.90;;;;;;5026618;28;20417;-38
2021/10/13 10:37:46;;;;;;;16.83;9.77;;;13.30;99.90;;;;;;5027011;28;20791;-38
2021/10/13 10:40:32;;;;;;;13.33;9.37;;;13.30;99.90;;;;;;5026779;28;20809;-38
2021/10/13 10:43:06;;;;;;;14.23;10.17;;;13.40;99.90;;;;;;5014128;28;20532;-38
2021/10/13 10:45:47;;;;;;;14.30;9.50;;;13.40;99.90;;;;;;5026834;28;20447;-38
2021/10/13 10:48:14;;;;;;;13.47;8.40;;;13.40;99.90;;;;;;5013254;28;20823;-38
2021/10/13 10:50:42;;;;;;;11.70;7.53;;;13.40;99.90;;;;;;5026901;28;20424;-38
2021/10/13 10:53:31;;;;;;;9.60;6.73;;;13.50;99.90;;;;;;5024557;28;20421;-38
2021/10/13 10:56:14;;;;;;;9.17;7.37;;;13.50;99.90;;;;;;5023350;28;20883;-38
2021/10/13 10:58:56;;;;;;;11.83;6.23;;;13.60;99.90;;;;;;5019936;28;20421;-38
2021/10/13 11:01:22;;;;;;;7.60;5.93;;;13.60;99.90;;;;;;5026785;28;20428;-38
2021/10/13 11:03:48;;;;;;;8.30;6.53;;;13.70;99.90;;;;;;5025690;28;20445;-38
2021/10/13 11:06:23;;;;;;;8.90;7.00;;;13.70;99.90;;;;;;5025994;28;20499;-38
2021/10/13 11:09:05;;;;;;;10.70;5.97;;;13.70;99.90;;;;;;5026285;28;20214;-38
2021/10/13 11:11:34;;;;;;;10.77;6.77;;;13.80;99.90;;;;;;5022735;28;20453;-40
2021/10/13 11:14:07;;;;;;;9.57;6.07;;;13.90;99.90;;;;;;5021569;28;20840;-39
2021/10/13 11:16:35;;;;;;;9.67;6.90;;;14.10;99.90;;;;;;5027791;28;20453;-38
2021/10/13 11:19:16;;;;;;;7.00;6.13;;;14.30;99.90;;;;;;5034707;28;20428;-38
2021/10/13 11:21:43;;;;;;;8.50;7.00;;;14.50;99.90;;;;;;5027372;28;20452;-38
2021/10/13 11:24:09;;;;;;;9.27;7.33;;;14.50;99.90;;;;;;5025141;28;20792;-39
2021/10/13 11:26:35;;;;;;;9.37;7.67;;;14.40;99.90;;;;;;5023136;28;20439;-38
2021/10/13 11:29:02;;;;;;;7.93;7.13;;;14.30;99.90;;;;;;5021597;28;20465;-38
2021/10/13 11:31:27;;;;;;;12.23;7.60;;;13.90;99.90;;;;;;5027626;28;20425;-38
2021/10/13 11:34:07;;;;;;;9.13;6.50;;;13.70;99.90;;;;;;5027497;28;20436;-38
2021/10/13 11:36:45;;;;;;;7.43;6.70;;;13.60;99.90;;;;;;5026193;28;20194;-38
2021/10/13 11:39:37;;;;;;;8.57;7.00;;;13.50;99.90;;;;;;5028195;28;20421;-38
2021/10/13 11:42:04;;;;;;;11.10;7.23;;;13.40;99.90;;;;;;5026443;28;20531;-38
2021/10/13 11:44:31;;;;;;;9.30;6.80;;;13.40;99.90;;;;;;5027058;28;20819;-38
2021/10/13 11:47:07;;;;;;;13.73;8.40;;;13.40;99.90;;;;;;5026024;28;20433;-39
2021/10/13 11:49:56;;;;;;;11.17;8.77;;;13.40;99.90;;;;;;5027456;28;20874;-38
2021/10/13 11:52:22;;;;;;;11.03;9.27;;;13.30;99.90;;;;;;5027516;28;20412;-38
2021/10/13 11:54:57;;;;;;;12.67;9.50;;;13.20;99.90;;;;;;5026996;28;20410;-39
2021/10/13 11:57:23;;;;;;;16.43;10.40;;;13.30;99.90;;;;;;5018212;28;20273;-38
2021/10/13 12:00:10;;;;;;;14.20;10.47;;;13.30;99.90;;;;;;5020584;28;20421;-38
2021/10/13 12:02:36;;;;;;;12.60;10.10;;;13.30;99.90;;;;;;5025010;28;20978;-38
2021/10/13 12:05:07;;;;;;;12.63;10.40;;;13.40;99.90;;;;;;5025582;28;20420;-42
2021/10/13 12:07:44;;;;;;;13.53;10.93;;;13.50;99.90;;;;;;5024385;28;20552;-39
2021/10/13 12:10:11;;;;;;;11.70;10.47;;;13.60;99.90;;;;;;5025440;28;20425;-38
2021/10/13 12:12:37;;;;;;;14.43;10.70;;;13.70;99.90;;;;;;5015998;28;20938;-38
2021/10/13 12:15:16;;;;;;;9.23;8.33;;;13.80;99.90;;;;;;5021485;28;20425;-39
2021/10/13 12:17:42;;;;;;;11.97;10.00;;;13.80;99.90;;;;;;5028573;28;20428;-38
2021/10/13 12:20:17;;;;;;;12.73;9.37;;;13.80;99.90;;;;;;5031555;28;20791;-38
2021/10/13 12:22:51;;;;;;;11.00;8.60;;;13.70;99.90;;;;;;5040481;28;20295;-39
2021/10/13 12:25:27;;;;;;;12.57;8.30;;;13.50;99.90;;;;;;5049534;28;20812;-38
2021/10/13 12:27:54;;;;;;;11.13;9.10;;;13.50;99.90;;;;;;5033927;28;20599;-38
2021/10/13 12:30:38;;;;;;;11.40;8.20;;;13.40;99.90;;;;;;5029041;28;20424;-38
2021/10/13 12:33:12;;;;;;;10.37;9.27;;;13.30;99.90;;;;;;5028562;28;20851;-38
2021/10/13 12:35:39;;;;;;;13.50;9.60;;;13.30;99.90;;;;;;5029267;28;20478;-38
2021/10/13 12:38:16;;;;;;;10.63;9.53;;;13.20;99.90;;;;;;5029369;28;20417;-38
2021/10/13 12:41:08;;;;;;;11.70;10.50;;;13.10;99.90;;;;;;5029197;28;20429;-38
2021/10/13 12:43:45;;;;;;;14.60;9.80;;;13.00;99.90;;;;;;5017151;28;21414;-38
2021/10/13 12:46:31;;;;;;;13.10;8.80;;;13.00;99.90;;;;;;5027939;28;20456;-38
2021/10/13 12:49:09;;;;;;;12.00;8.53;;;12.90;99.90;;;;;;5029439;28;20548;-39
2021/10/13 12:51:46;;;;;;;14.20;8.07;;;12.80;99.90;;;;;;5028949;28;20421;-39
2021/10/13 12:54:11;;;;;;;9.37;6.90;;;12.80;99.90;;;;;;5028361;28;20439;-41
2021/10/13 12:56:37;;;;;;;9.10;6.33;;;12.80;99.90;;;;;;5028632;28;21022;-38
2021/10/13 12:59:03;;;;;;;8.40;6.60;;;12.80;99.90;;;;;;5023382;28;20190;-38